Time;durP1;ratioP1;P1;durP2;ratioP2;P2;SDS_P1;SDS_P2;PMS_P1;PMS_P2;Temp;Humidity;BMP_temperature;BMP_pressure;BME280_temperature;BME280_humidity;BME280_pressure;Samples;Min_cycle;Max_cycle;Signal;HPM_P1;HPM_P2
2023/05/27 00:01:01;;;;;;;8.05;3.85;;;17.00;59.90;;;;;;5000035;28;20504;-62
2023/05/27 00:03:27;;;;;;;10.95;3.95;;;17.00;59.90;;;;;;5004478;28;20036;-63
2023/05/27 00:05:53;;;;;;;8.68;3.95;;;16.90;59.90;;;;;;5001552;28;20030;-62
2023/05/27 00:08:18;;;;;;;6.88;3.70;;;16.90;59.90;;;;;;5001652;28;20501;-62
2023/05/27 00:10:44;;;;;;;9.38;4.07;;;16.90;59.90;;;;;;5006114;28;20034;-62
2023/05/27 00:13:10;;;;;;;7.57;4.03;;;16.80;60.00;;;;;;5006635;28;20398;-62
2023/05/27 00:15:38;;;;;;;10.45;3.85;;;16.70;59.90;;;;;;5006694;28;20040;-62
2023/05/27 00:18:04;;;;;;;5.90;3.40;;;16.70;60.10;;;;;;5006297;28;20600;-63
2023/05/27 00:20:30;;;;;;;8.60;3.85;;;16.70;60.00;;;;;;5002430;28;20030;-63
2023/05/27 00:22:56;;;;;;;9.85;3.67;;;16.60;60.00;;;;;;5000758;28;20068;-63
2023/05/27 00:25:22;;;;;;;8.65;4.15;;;16.60;60.10;;;;;;5001562;28;20026;-63
2023/05/27 00:27:48;;;;;;;7.40;3.70;;;16.50;60.20;;;;;;4998434;28;20026;-61
2023/05/27 00:30:15;;;;;;;10.45;3.40;;;16.50;60.30;;;;;;4997984;28;20092;-62
2023/05/27 00:32:41;;;;;;;6.90;4.03;;;16.50;61.20;;;;;;4999151;28;20137;-63
2023/05/27 00:35:07;;;;;;;6.90;3.70;;;16.40;60.40;;;;;;4998397;28;20034;-62
2023/05/27 00:37:33;;;;;;;6.35;3.85;;;16.40;60.50;;;;;;4999335;28;20077;-62
2023/05/27 00:39:59;;;;;;;8.95;3.70;;;16.40;60.50;;;;;;4999289;28;20041;-62
2023/05/27 00:42:25;;;;;;;6.97;3.53;;;16.30;60.50;;;;;;5001443;28;20467;-61
2023/05/27 00:44:50;;;;;;;7.13;3.55;;;16.30;60.60;;;;;;5000152;28;20041;-63
2023/05/27 00:47:16;;;;;;;8.10;3.70;;;16.30;61.50;;;;;;4999258;28;20035;-63
2023/05/27 00:49:43;;;;;;;6.53;3.53;;;16.30;60.80;;;;;;5003296;28;20042;-62
2023/05/27 00:52:09;;;;;;;6.75;3.80;;;16.20;60.80;;;;;;5000173;28;20046;-62
2023/05/27 00:54:35;;;;;;;7.97;3.65;;;16.20;60.90;;;;;;5002816;28;20408;-62
2023/05/27 00:57:02;;;;;;;6.82;3.55;;;16.20;61.00;;;;;;5002552;28;20042;-61
2023/05/27 00:59:28;;;;;;;7.63;3.78;;;16.10;60.80;;;;;;5001528;28;20072;-63
2023/05/27 01:01:53;;;;;;;6.65;3.80;;;16.10;60.90;;;;;;5001992;28;20116;-63
2023/05/27 01:04:20;;;;;;;8.98;3.63;;;16.10;61.00;;;;;;5002050;28;20460;-63
2023/05/27 01:07:03;;;;;;;9.68;3.75;;;16.00;61.00;;;;;;5002605;28;20030;-62
2023/05/27 01:09:46;;;;;;;6.07;3.13;;;16.00;61.30;;;;;;5001201;28;20041;-61
2023/05/27 01:12:37;;;;;;;6.82;3.63;;;16.00;61.00;;;;;;5002079;28;20120;-61
2023/05/27 01:15:05;;;;;;;6.78;3.20;;;16.00;61.50;;;;;;5002840;28;20060;-64
2023/05/27 01:17:33;;;;;;;8.93;3.65;;;15.90;61.20;;;;;;5004301;28;20038;-62
2023/05/27 01:20:01;;;;;;;6.55;3.80;;;15.90;61.20;;;;;;5002998;28;20042;-62
2023/05/27 01:22:31;;;;;;;7.55;3.42;;;15.90;61.50;;;;;;4998286;28;20069;-61
2023/05/27 01:24:57;;;;;;;7.80;3.50;;;15.80;61.60;;;;;;5001862;28;20033;-63
2023/05/27 01:27:26;;;;;;;7.72;3.55;;;15.80;61.40;;;;;;5000319;28;20048;-62
2023/05/27 01:29:52;;;;;;;7.13;3.40;;;15.80;61.40;;;;;;4996917;28;20034;-62
2023/05/27 01:32:29;;;;;;;7.85;3.53;;;15.80;61.50;;;;;;4998412;28;20502;-62
2023/05/27 01:35:09;;;;;;;7.43;3.67;;;15.70;61.60;;;;;;5002491;28;20125;-63
2023/05/27 01:37:42;;;;;;;6.38;2.92;;;15.70;61.70;;;;;;5003020;28;20038;-62
2023/05/27 01:40:08;;;;;;;6.85;3.15;;;15.70;61.60;;;;;;5004458;28;20049;-62
2023/05/27 01:42:37;;;;;;;6.68;3.45;;;15.70;61.50;;;;;;5003189;28;20084;-61
2023/05/27 01:45:06;;;;;;;9.70;3.42;;;15.60;61.60;;;;;;5002000;28;20058;-63
2023/05/27 01:47:31;;;;;;;9.20;3.90;;;15.60;61.70;;;;;;5001877;28;20038;-62
2023/05/27 01:49:57;;;;;;;8.90;3.47;;;15.50;61.70;;;;;;5002200;28;20493;-63
2023/05/27 01:52:23;;;;;;;7.47;3.60;;;15.50;61.70;;;;;;5002405;28;20073;-62
2023/05/27 01:54:48;;;;;;;9.13;3.67;;;15.50;61.90;;;;;;5002614;28;20038;-61
2023/05/27 01:57:14;;;;;;;7.72;4.00;;;15.40;61.90;;;;;;5002823;28;20037;-62
2023/05/27 01:59:40;;;;;;;5.70;3.17;;;15.40;61.90;;;;;;5000946;28;20042;-62
2023/05/27 02:02:06;;;;;;;8.85;3.72;;;15.40;62.00;;;;;;5002457;28;20511;-62
2023/05/27 02:04:31;;;;;;;8.10;3.15;;;15.40;62.00;;;;;;5001159;28;20041;-63
2023/05/27 02:06:57;;;;;;;9.02;3.42;;;15.30;62.10;;;;;;5002487;28;20038;-61
2023/05/27 02:09:23;;;;;;;8.00;3.55;;;15.30;62.20;;;;;;5004778;28;20064;-62
2023/05/27 02:11:48;;;;;;;8.20;3.50;;;15.30;62.30;;;;;;5008278;28;20382;-62
2023/05/27 02:14:14;;;;;;;6.22;3.20;;;15.30;62.30;;;;;;5009094;28;20092;-61
2023/05/27 02:16:40;;;;;;;5.55;3.28;;;15.20;62.20;;;;;;5007684;28;20048;-62
2023/05/27 02:19:05;;;;;;;7.45;3.40;;;15.20;62.20;;;;;;5008328;28;20534;-62
2023/05/27 02:21:31;;;;;;;7.28;3.63;;;15.20;62.30;;;;;;5001662;28;20046;-62
2023/05/27 02:23:57;;;;;;;7.82;3.33;;;15.20;62.30;;;;;;5001462;28;20505;-62
2023/05/27 02:26:23;;;;;;;9.80;3.50;;;15.20;62.40;;;;;;5001653;28;20042;-62
2023/05/27 02:28:49;;;;;;;6.90;3.65;;;15.20;62.50;;;;;;5002441;28;20124;-62
2023/05/27 02:31:14;;;;;;;5.85;3.28;;;15.10;62.50;;;;;;5002117;28;20065;-61
2023/05/27 02:33:40;;;;;;;9.68;3.70;;;15.10;62.50;;;;;;5002106;28;20116;-62
2023/05/27 02:36:06;;;;;;;7.07;3.25;;;15.10;62.70;;;;;;5000149;28;20038;-63
2023/05/27 02:38:32;;;;;;;7.00;3.42;;;15.10;62.80;;;;;;5000986;28;20037;-63
2023/05/27 02:40:57;;;;;;;7.85;3.30;;;15.10;62.90;;;;;;5001702;28;20409;-63
2023/05/27 02:43:23;;;;;;;6.10;3.35;;;15.00;63.00;;;;;;5001750;28;20040;-61
2023/05/27 02:45:49;;;;;;;9.35;3.40;;;15.00;63.10;;;;;;5000885;28;20045;-62
2023/05/27 02:48:14;;;;;;;7.50;3.42;;;15.00;63.10;;;;;;5000203;28;20046;-62
2023/05/27 02:50:40;;;;;;;8.88;3.63;;;14.90;63.30;;;;;;4998879;28;20042;-63
2023/05/27 02:53:05;;;;;;;6.45;3.00;;;14.90;63.20;;;;;;5001022;28;20069;-61
2023/05/27 02:55:31;;;;;;;5.70;3.00;;;14.90;63.30;;;;;;5001715;28;20184;-63
2023/05/27 02:57:57;;;;;;;6.38;3.35;;;14.90;63.30;;;;;;5000968;28;20042;-62
2023/05/27 03:00:22;;;;;;;8.93;3.58;;;14.80;63.30;;;;;;5001434;28;20038;-61
2023/05/27 03:02:48;;;;;;;10.68;3.85;;;14.80;63.60;;;;;;5000440;28;20041;-63
2023/05/27 03:05:14;;;;;;;8.65;3.65;;;14.70;63.50;;;;;;5003825;28;20505;-62
2023/05/27 03:07:41;;;;;;;6.80;3.13;;;14.70;63.60;;;;;;5007585;28;20034;-63
2023/05/27 03:10:07;;;;;;;6.65;2.95;;;14.70;63.60;;;;;;5006301;28;20073;-63
2023/05/27 03:12:33;;;;;;;5.07;3.10;;;14.70;63.70;;;;;;5007316;28;20515;-62
2023/05/27 03:14:59;;;;;;;8.85;3.88;;;14.60;63.60;;;;;;5008229;28;20026;-62
2023/05/27 03:17:25;;;;;;;6.30;3.17;;;14.60;63.70;;;;;;5008539;28;20400;-62
2023/05/27 03:19:50;;;;;;;9.60;3.75;;;14.60;63.70;;;;;;5006304;28;20125;-62
2023/05/27 03:22:16;;;;;;;8.48;3.50;;;14.60;63.80;;;;;;4999475;28;20497;-61
2023/05/27 03:24:42;;;;;;;8.23;3.30;;;14.60;64.10;;;;;;5000440;28;20029;-62
2023/05/27 03:27:07;;;;;;;7.88;3.55;;;14.60;64.10;;;;;;5001158;28;20025;-62
2023/05/27 03:29:33;;;;;;;6.18;3.30;;;14.50;64.00;;;;;;5002010;28;20033;-61
2023/05/27 03:31:59;;;;;;;7.35;3.45;;;14.50;64.00;;;;;;5000034;28;20058;-62
2023/05/27 03:34:25;;;;;;;7.45;3.63;;;14.50;64.10;;;;;;4999876;28;20042;-62
2023/05/27 03:36:50;;;;;;;9.38;3.50;;;14.50;64.20;;;;;;5001292;28;20038;-62
2023/05/27 03:39:17;;;;;;;7.50;3.30;;;14.40;64.20;;;;;;5003084;28;20578;-64
2023/05/27 03:41:46;;;;;;;9.68;3.70;;;14.40;64.20;;;;;;5001815;28;21739;-62
2023/05/27 03:44:12;;;;;;;9.40;3.60;;;14.40;64.30;;;;;;5001665;28;20042;-63
2023/05/27 03:46:37;;;;;;;5.60;3.13;;;14.40;64.40;;;;;;5001425;28;20034;-63
2023/05/27 03:49:03;;;;;;;7.03;3.65;;;14.40;64.50;;;;;;5001067;28;20120;-63
2023/05/27 03:51:28;;;;;;;8.75;3.50;;;14.30;64.50;;;;;;4998523;28;20097;-63
2023/05/27 03:53:54;;;;;;;7.10;3.30;;;14.30;64.50;;;;;;5002833;28;20048;-62
2023/05/27 03:56:20;;;;;;;7.13;3.67;;;14.20;64.40;;;;;;5002470;28;20507;-63
2023/05/27 03:58:45;;;;;;;8.07;3.35;;;14.20;64.60;;;;;;5001866;28;20052;-63
2023/05/27 04:01:12;;;;;;;6.53;3.50;;;14.20;64.80;;;;;;5003328;28;20050;-63
2023/05/27 04:03:39;;;;;;;5.90;3.17;;;14.20;64.90;;;;;;4999919;28;20156;-62
2023/05/27 04:06:06;;;;;;;7.35;3.13;;;14.20;65.00;;;;;;4999131;28;20489;-63
2023/05/27 04:08:31;;;;;;;8.95;3.30;;;14.10;65.10;;;;;;5001270;28;20049;-61
2023/05/27 04:10:57;;;;;;;9.02;3.40;;;14.10;65.10;;;;;;5001739;28;20029;-63
2023/05/27 04:13:23;;;;;;;8.68;3.53;;;14.10;65.20;;;;;;5001935;28;20095;-62
2023/05/27 04:15:48;;;;;;;7.80;3.40;;;14.10;65.40;;;;;;5001316;28;20037;-61
2023/05/27 04:18:14;;;;;;;8.63;3.33;;;14.10;65.20;;;;;;5003187;28;20420;-60
2023/05/27 04:20:42;;;;;;;8.80;3.50;;;14.10;65.30;;;;;;4999988;28;20034;-62
2023/05/27 04:23:09;;;;;;;8.77;3.53;;;14.10;65.50;;;;;;4999354;28;20034;-62
2023/05/27 04:25:35;;;;;;;7.93;3.20;;;14.10;65.70;;;;;;5003650;28;20121;-62
2023/05/27 04:28:05;;;;;;;4.97;3.05;;;14.10;65.50;;;;;;5002987;28;20036;-63
2023/05/27 04:30:31;;;;;;;12.07;3.42;;;14.10;65.60;;;;;;5000920;28;20032;-61
2023/05/27 04:32:57;;;;;;;8.13;2.97;;;14.00;65.60;;;;;;5002238;28;20057;-62
2023/05/27 04:35:23;;;;;;;7.57;3.30;;;14.00;65.70;;;;;;4999845;28;20113;-63
2023/05/27 04:37:49;;;;;;;6.97;3.17;;;14.00;65.80;;;;;;5003767;28;20628;-63
2023/05/27 04:40:14;;;;;;;7.07;3.17;;;14.00;65.90;;;;;;5001056;28;20118;-63
2023/05/27 04:42:40;;;;;;;8.20;3.45;;;14.00;65.90;;;;;;5001714;28;20168;-61
2023/05/27 04:45:06;;;;;;;7.72;3.35;;;14.00;65.90;;;;;;5003063;28;20038;-63
2023/05/27 04:47:33;;;;;;;12.20;3.40;;;14.00;66.00;;;;;;5003559;28;20133;-61
2023/05/27 04:50:00;;;;;;;9.45;3.30;;;14.00;65.90;;;;;;5001142;28;20037;-61
2023/05/27 04:52:26;;;;;;;10.35;3.28;;;14.00;66.00;;;;;;4999579;28;20099;-63
2023/05/27 04:54:54;;;;;;;9.27;3.60;;;14.00;66.10;;;;;;5001565;28;20083;-61
2023/05/27 04:57:20;;;;;;;8.50;3.60;;;14.00;66.20;;;;;;5004080;28;20038;-62
2023/05/27 05:00:36;;;;;;;10.00;3.83;;;14.10;66.20;;;;;;5002681;28;20433;-63
2023/05/27 05:02:36;;;;;;;6.60;3.15;;;14.10;66.40;;;;;;4991323;28;20040;-62
2023/05/27 05:05:02;;;;;;;8.55;3.30;;;14.10;66.60;;;;;;4999320;28;20034;-62
2023/05/27 05:07:28;;;;;;;6.45;3.28;;;14.00;66.50;;;;;;4999039;28;20141;-61
2023/05/27 05:09:53;;;;;;;9.70;3.60;;;14.10;66.40;;;;;;5001180;28;20121;-63
2023/05/27 05:12:19;;;;;;;6.63;3.22;;;14.10;66.50;;;;;;5002238;28;20494;-62
2023/05/27 05:14:44;;;;;;;8.70;3.25;;;14.10;66.60;;;;;;5004662;28;20445;-62
2023/05/27 05:17:10;;;;;;;8.73;3.17;;;14.20;66.70;;;;;;5003041;28;20113;-61
2023/05/27 05:19:36;;;;;;;9.25;3.40;;;14.20;66.90;;;;;;5002853;28;20569;-62
2023/05/27 05:22:01;;;;;;;7.95;3.40;;;14.20;66.70;;;;;;5000575;28;20428;-63
2023/05/27 05:24:27;;;;;;;5.68;3.03;;;14.30;66.80;;;;;;4999415;28;20475;-63
2023/05/27 05:26:52;;;;;;;9.88;3.38;;;14.30;66.70;;;;;;4997126;28;20045;-62
2023/05/27 05:29:18;;;;;;;7.85;3.50;;;14.40;66.80;;;;;;5002459;28;20115;-61
2023/05/27 05:31:45;;;;;;;8.25;3.75;;;14.40;66.80;;;;;;4996335;28;20049;-62
2023/05/27 05:34:10;;;;;;;7.53;3.17;;;14.40;66.80;;;;;;4999503;28;20404;-63
2023/05/27 05:36:36;;;;;;;7.82;3.88;;;14.50;66.80;;;;;;4999279;28;20030;-62
2023/05/27 05:39:03;;;;;;;10.10;3.20;;;14.50;66.80;;;;;;5000536;28;20674;-61
2023/05/27 05:41:29;;;;;;;10.68;3.20;;;14.60;66.70;;;;;;4998328;28;20037;-62
2023/05/27 05:43:54;;;;;;;6.38;2.92;;;14.60;66.60;;;;;;4996654;28;20037;-62
2023/05/27 05:46:20;;;;;;;8.63;3.40;;;14.70;66.60;;;;;;4999627;28;20038;-62
2023/05/27 05:48:46;;;;;;;16.90;3.72;;;14.70;66.40;;;;;;4998329;28;20057;-60
2023/05/27 05:51:11;;;;;;;8.52;3.42;;;14.80;66.40;;;;;;4980362;28;20039;-63
2023/05/27 05:53:37;;;;;;;7.88;2.92;;;14.90;66.40;;;;;;4987403;28;20133;-62
2023/05/27 05:56:02;;;;;;;7.68;3.30;;;14.90;66.20;;;;;;4991007;28;20494;-62
2023/05/27 05:58:28;;;;;;;6.10;3.15;;;15.00;66.10;;;;;;4998898;28;20038;-64
2023/05/27 06:00:54;;;;;;;10.18;3.65;;;15.00;65.90;;;;;;4994220;28;20056;-62
2023/05/27 06:03:19;;;;;;;6.40;3.40;;;15.10;65.80;;;;;;4988116;28;20473;-63
2023/05/27 06:05:45;;;;;;;8.30;3.35;;;15.10;65.70;;;;;;4994982;28;20062;-63
2023/05/27 06:08:11;;;;;;;8.05;3.45;;;15.20;65.70;;;;;;4995737;28;20129;-63
2023/05/27 06:10:36;;;;;;;8.25;3.50;;;15.20;65.50;;;;;;4989996;28;20113;-63
2023/05/27 06:13:02;;;;;;;7.05;3.50;;;15.30;65.70;;;;;;4992966;28;20549;-64
2023/05/27 06:15:28;;;;;;;6.90;3.63;;;15.30;65.70;;;;;;4982686;28;20147;-62
2023/05/27 06:17:54;;;;;;;10.45;3.78;;;15.40;66.60;;;;;;4986551;28;20052;-63
2023/05/27 06:20:19;;;;;;;13.32;4.00;;;15.50;65.70;;;;;;4999530;28;20179;-63
2023/05/27 06:22:47;;;;;;;8.57;3.50;;;15.50;65.20;;;;;;4995134;28;20087;-61
2023/05/27 06:25:13;;;;;;;10.23;3.78;;;15.60;65.20;;;;;;4999839;28;20033;-63
2023/05/27 06:27:38;;;;;;;8.68;4.10;;;15.60;65.30;;;;;;4992385;28;20554;-62
2023/05/27 06:30:05;;;;;;;8.75;4.15;;;15.70;65.30;;;;;;5000614;28;20643;-63
2023/05/27 06:32:30;;;;;;;10.65;3.88;;;15.70;65.20;;;;;;4994286;28;20069;-64
2023/05/27 06:34:56;;;;;;;7.13;3.70;;;15.80;65.00;;;;;;5000637;28;20505;-63
2023/05/27 06:37:21;;;;;;;9.40;3.55;;;15.90;64.90;;;;;;4997417;28;20053;-61
2023/05/27 06:39:47;;;;;;;9.10;4.15;;;16.00;65.00;;;;;;4999941;28;20285;-63
2023/05/27 06:42:13;;;;;;;9.10;4.00;;;16.00;65.10;;;;;;4999452;28;20441;-62
2023/05/27 06:44:39;;;;;;;8.25;4.00;;;16.10;64.80;;;;;;5001268;28;20034;-62
2023/05/27 06:47:05;;;;;;;9.95;4.05;;;16.20;64.60;;;;;;4998278;28;20583;-63
2023/05/27 06:49:30;;;;;;;9.57;4.50;;;16.20;64.60;;;;;;4998366;28;20132;-63
2023/05/27 06:51:56;;;;;;;8.85;3.75;;;16.30;64.30;;;;;;4994962;28;20038;-62
2023/05/27 06:54:21;;;;;;;11.10;4.20;;;16.40;64.10;;;;;;4984287;28;20926;-61
2023/05/27 06:56:47;;;;;;;9.57;3.80;;;16.50;64.00;;;;;;4992916;28;20049;-63
2023/05/27 06:59:13;;;;;;;7.38;3.70;;;16.50;64.00;;;;;;4999516;28;20464;-62
2023/05/27 07:01:38;;;;;;;8.35;4.30;;;16.60;63.70;;;;;;4995006;28;20394;-63
2023/05/27 07:04:04;;;;;;;8.75;4.13;;;16.70;63.60;;;;;;4999410;28;20046;-61
2023/05/27 07:06:29;;;;;;;6.93;4.32;;;16.70;63.60;;;;;;4999191;28;20074;-62
2023/05/27 07:08:55;;;;;;;9.88;4.15;;;16.80;63.90;;;;;;5003000;28;20602;-62
2023/05/27 07:11:21;;;;;;;7.10;4.32;;;16.80;63.70;;;;;;5002129;28;20684;-61
2023/05/27 07:13:47;;;;;;;7.38;4.43;;;16.90;63.70;;;;;;5004368;28;20052;-62
2023/05/27 07:16:13;;;;;;;8.57;4.78;;;17.00;63.50;;;;;;5004701;28;20041;-64
2023/05/27 07:18:38;;;;;;;8.00;4.05;;;17.10;63.60;;;;;;5002274;28;20125;-63
2023/05/27 07:21:04;;;;;;;12.70;5.20;;;17.20;63.50;;;;;;5001750;28;20038;-61
2023/05/27 07:23:29;;;;;;;13.95;5.00;;;17.20;63.20;;;;;;4997817;28;20030;-61
2023/05/27 07:25:55;;;;;;;9.55;4.65;;;17.30;63.30;;;;;;5004075;28;20064;-63
2023/05/27 07:28:20;;;;;;;9.45;4.82;;;17.40;63.10;;;;;;4998334;28;20030;-62
2023/05/27 07:30:46;;;;;;;8.57;4.72;;;17.50;62.90;;;;;;4993000;28;20177;-63
2023/05/27 07:33:13;;;;;;;7.38;4.00;;;17.60;62.90;;;;;;4999876;28;20042;-63
2023/05/27 07:35:38;;;;;;;8.25;4.63;;;17.60;63.10;;;;;;5000811;28;20129;-64
2023/05/27 07:38:04;;;;;;;8.63;4.85;;;17.70;62.90;;;;;;4999713;28;20127;-62
2023/05/27 07:40:29;;;;;;;7.65;4.88;;;17.90;62.90;;;;;;4997052;28;20090;-63
2023/05/27 07:42:55;;;;;;;8.15;5.00;;;17.90;62.90;;;;;;4998889;28;20030;-62
2023/05/27 07:45:22;;;;;;;8.77;4.72;;;18.00;62.90;;;;;;4998048;28;20302;-63
2023/05/27 07:47:48;;;;;;;7.00;4.65;;;18.20;62.70;;;;;;5002798;28;20042;-62
2023/05/27 07:50:14;;;;;;;8.88;5.00;;;18.20;62.40;;;;;;5001645;28;20493;-62
2023/05/27 07:52:41;;;;;;;9.32;4.82;;;18.30;62.30;;;;;;5002174;28;20099;-62
2023/05/27 07:55:07;;;;;;;9.05;4.88;;;18.50;62.20;;;;;;4998678;28;20422;-60
2023/05/27 07:57:32;;;;;;;9.10;4.93;;;18.60;62.10;;;;;;5002652;28;20049;-63
2023/05/27 07:59:58;;;;;;;9.93;5.60;;;18.70;61.50;;;;;;4997845;28;20041;-63
2023/05/27 08:02:25;;;;;;;8.15;5.15;;;18.80;61.00;;;;;;4992528;28;20041;-63
2023/05/27 08:04:51;;;;;;;8.63;4.72;;;18.80;61.00;;;;;;4997081;28;20030;-63
2023/05/27 08:07:17;;;;;;;9.65;4.80;;;19.00;60.80;;;;;;4997610;28;20532;-62
2023/05/27 08:09:42;;;;;;;10.60;5.13;;;19.00;61.20;;;;;;5004903;28;20038;-62
2023/05/27 08:12:08;;;;;;;8.25;4.88;;;19.10;61.00;;;;;;4997503;28;20034;-62
2023/05/27 08:14:35;;;;;;;10.18;5.53;;;19.30;60.30;;;;;;5000976;28;20436;-62
2023/05/27 08:17:00;;;;;;;9.45;4.95;;;19.30;59.90;;;;;;5001737;28;20386;-63
2023/05/27 08:19:27;;;;;;;9.52;4.43;;;19.40;60.80;;;;;;5002353;28;20037;-64
2023/05/27 08:21:54;;;;;;;8.45;5.05;;;19.50;60.00;;;;;;5001411;28;20042;-64
2023/05/27 08:24:21;;;;;;;17.98;4.70;;;19.60;59.90;;;;;;5000390;28;20033;-65
2023/05/27 08:26:47;;;;;;;13.88;5.20;;;19.70;59.80;;;;;;5002195;28;22544;-64
2023/05/27 08:29:13;;;;;;;6.85;4.30;;;19.80;59.80;;;;;;5002567;28;20076;-63
2023/05/27 08:31:40;;;;;;;8.88;4.75;;;19.90;59.60;;;;;;5001540;28;20406;-64
2023/05/27 08:34:05;;;;;;;8.75;4.93;;;20.00;59.20;;;;;;5002691;28;20038;-64
2023/05/27 08:36:34;;;;;;;7.95;4.68;;;20.10;58.50;;;;;;5000029;28;20297;-63
2023/05/27 08:39:00;;;;;;;8.20;4.65;;;20.30;58.60;;;;;;5004062;28;20103;-63
2023/05/27 08:41:29;;;;;;;8.05;4.57;;;20.30;58.30;;;;;;5004979;28;20037;-63
2023/05/27 08:43:55;;;;;;;7.07;3.85;;;20.40;57.60;;;;;;5006472;28;20113;-63
2023/05/27 08:46:22;;;;;;;11.57;5.47;;;20.50;58.00;;;;;;5003758;28;20041;-64
2023/05/27 08:48:49;;;;;;;8.48;4.78;;;20.60;57.50;;;;;;5005148;28;20075;-61
2023/05/27 08:51:18;;;;;;;8.48;4.47;;;20.70;57.30;;;;;;5004498;28;20350;-64
2023/05/27 08:53:46;;;;;;;9.40;4.55;;;20.70;57.30;;;;;;5005491;28;20030;-64
2023/05/27 08:56:14;;;;;;;8.45;4.20;;;20.80;57.30;;;;;;5006546;28;20045;-64
2023/05/27 08:58:41;;;;;;;6.63;4.43;;;20.90;57.30;;;;;;5005408;28;20389;-63
2023/05/27 09:01:08;;;;;;;8.73;4.63;;;21.00;57.00;;;;;;5005057;28;20096;-62
2023/05/27 09:03:33;;;;;;;9.73;4.85;;;21.10;56.80;;;;;;5004972;28;20030;-61
2023/05/27 09:06:03;;;;;;;7.50;4.22;;;21.20;56.70;;;;;;5006432;28;20247;-64
2023/05/27 09:08:29;;;;;;;7.80;4.13;;;21.40;56.40;;;;;;5004749;28;20447;-64
2023/05/27 09:10:55;;;;;;;7.75;4.90;;;21.50;56.20;;;;;;5003323;28;20194;-63
2023/05/27 09:13:30;;;;;;;6.95;4.65;;;21.60;55.90;;;;;;5004903;28;20121;-64
2023/05/27 09:16:04;;;;;;;7.97;4.70;;;21.60;54.90;;;;;;5004315;28;20057;-64
2023/05/27 09:18:32;;;;;;;7.57;4.13;;;21.70;54.90;;;;;;5005249;28;20052;-64
2023/05/27 09:20:58;;;;;;;11.25;4.75;;;21.80;55.40;;;;;;5004492;28;20454;-62
2023/05/27 09:23:25;;;;;;;8.20;4.30;;;21.90;55.60;;;;;;5003064;28;20489;-64
2023/05/27 09:25:51;;;;;;;8.80;4.10;;;21.90;55.30;;;;;;5005174;28;20057;-64
2023/05/27 09:28:24;;;;;;;9.73;4.28;;;22.00;54.40;;;;;;4999267;28;20148;-64
2023/05/27 09:31:06;;;;;;;7.68;4.43;;;22.10;54.10;;;;;;5004306;28;20034;-63
2023/05/27 09:33:33;;;;;;;8.27;4.32;;;22.10;54.00;;;;;;5006482;28;20124;-64
2023/05/27 09:36:03;;;;;;;7.65;3.65;;;22.20;54.50;;;;;;5005245;28;20509;-63
2023/05/27 09:38:33;;;;;;;11.00;4.38;;;22.30;54.60;;;;;;5005125;28;20054;-62
2023/05/27 09:40:59;;;;;;;8.48;4.40;;;22.40;54.20;;;;;;5006715;28;20026;-64
2023/05/27 09:43:26;;;;;;;7.47;4.25;;;22.40;54.00;;;;;;5006615;28;20034;-64
2023/05/27 09:45:55;;;;;;;7.00;4.18;;;22.50;53.80;;;;;;5006404;28;20041;-64
2023/05/27 09:48:23;;;;;;;7.78;3.92;;;22.60;53.80;;;;;;5006055;28;20069;-63
2023/05/27 09:50:50;;;;;;;7.15;4.22;;;22.70;53.70;;;;;;5004581;28;20409;-64
2023/05/27 09:53:17;;;;;;;9.02;4.28;;;22.70;53.30;;;;;;5006276;28;20037;-64
2023/05/27 09:55:43;;;;;;;7.15;4.43;;;22.70;52.80;;;;;;5008632;28;20397;-63
2023/05/27 09:58:09;;;;;;;10.52;3.92;;;22.80;52.70;;;;;;5010081;28;20038;-63
2023/05/27 10:00:39;;;;;;;6.38;3.88;;;22.80;52.90;;;;;;5009709;28;20522;-64
2023/05/27 10:03:06;;;;;;;9.20;4.15;;;22.90;53.00;;;;;;5004991;28;20042;-63
2023/05/27 10:05:33;;;;;;;7.78;3.95;;;22.90;52.70;;;;;;5009483;28;20410;-64
2023/05/27 10:07:59;;;;;;;6.85;3.95;;;23.00;52.60;;;;;;5009346;28;20460;-64
2023/05/27 10:10:25;;;;;;;10.05;4.20;;;23.00;52.60;;;;;;5007400;28;20057;-63
2023/05/27 10:12:53;;;;;;;7.90;4.32;;;23.20;52.20;;;;;;5005499;28;20034;-63
2023/05/27 10:15:26;;;;;;;10.13;4.28;;;23.20;52.00;;;;;;5008197;28;20469;-63
2023/05/27 10:18:09;;;;;;;6.63;4.32;;;23.20;52.00;;;;;;5002468;28;20038;-64
2023/05/27 10:20:41;;;;;;;5.40;3.45;;;23.30;52.10;;;;;;5004394;28;20051;-62
2023/05/27 10:23:13;;;;;;;7.78;4.03;;;23.40;51.70;;;;;;5005194;28;20040;-63
2023/05/27 10:25:40;;;;;;;7.38;4.53;;;23.40;51.40;;;;;;5003090;28;20034;-63
2023/05/27 10:28:06;;;;;;;6.07;3.90;;;23.50;51.50;;;;;;5000090;28;20034;-63
2023/05/27 10:30:44;;;;;;;9.02;4.00;;;23.60;51.50;;;;;;5000062;28;20084;-63
2023/05/27 10:33:10;;;;;;;8.23;4.78;;;23.60;50.90;;;;;;5004218;28;20029;-63
2023/05/27 10:35:43;;;;;;;11.20;4.20;;;23.60;51.00;;;;;;5002315;28;20029;-63
2023/05/27 10:38:17;;;;;;;9.55;4.22;;;23.80;50.10;;;;;;4985174;28;20034;-64
2023/05/27 10:40:45;;;;;;;7.72;4.20;;;23.80;50.20;;;;;;5002701;28;20041;-64
2023/05/27 10:43:18;;;;;;;7.50;4.10;;;23.80;50.40;;;;;;5003938;28;20034;-63
2023/05/27 10:45:44;;;;;;;7.03;3.90;;;23.90;49.80;;;;;;5001901;28;20471;-64
2023/05/27 10:48:19;;;;;;;6.20;3.92;;;24.00;50.40;;;;;;5000047;28;20418;-63
2023/05/27 10:50:57;;;;;;;6.07;3.63;;;24.00;49.60;;;;;;4995352;28;20121;-64
2023/05/27 10:53:25;;;;;;;6.50;3.67;;;24.10;49.30;;;;;;5000302;28;20037;-64
2023/05/27 10:55:51;;;;;;;7.22;4.00;;;24.10;50.00;;;;;;4985577;28;20507;-63
2023/05/27 10:58:17;;;;;;;5.43;4.15;;;24.20;48.70;;;;;;5009323;28;20262;-63
2023/05/27 11:00:46;;;;;;;5.57;3.25;;;24.30;49.10;;;;;;5008924;28;20101;-64
2023/05/27 11:03:27;;;;;;;6.03;4.28;;;24.30;49.20;;;;;;5007827;28;20080;-64
2023/05/27 11:06:07;;;;;;;6.13;3.83;;;24.40;48.80;;;;;;5004829;28;20029;-64
2023/05/27 11:08:33;;;;;;;6.53;3.63;;;24.40;48.40;;;;;;5005037;28;20405;-63
2023/05/27 11:11:04;;;;;;;8.35;4.20;;;24.40;48.90;;;;;;5006360;28;20505;-63
2023/05/27 11:13:43;;;;;;;7.05;4.15;;;24.50;48.20;;;;;;5008123;28;20128;-64
2023/05/27 11:16:09;;;;;;;6.38;3.83;;;24.50;48.60;;;;;;5007557;28;20537;-64
2023/05/27 11:18:38;;;;;;;4.47;3.53;;;24.50;48.60;;;;;;5006954;28;20117;-64
2023/05/27 11:21:05;;;;;;;8.43;4.20;;;24.50;48.70;;;;;;5007599;28;20022;-64
2023/05/27 11:23:43;;;;;;;7.20;3.97;;;24.60;48.00;;;;;;5009094;28;20030;-64
2023/05/27 11:26:19;;;;;;;4.95;3.63;;;24.60;47.40;;;;;;5009001;28;20034;-64
2023/05/27 11:28:47;;;;;;;6.07;3.97;;;24.60;48.00;;;;;;5006189;28;20069;-63
2023/05/27 11:31:14;;;;;;;4.82;3.42;;;24.60;48.00;;;;;;5007874;28;20042;-64
2023/05/27 11:33:44;;;;;;;6.32;3.92;;;24.60;48.10;;;;;;5005229;28;20032;-63
2023/05/27 11:36:14;;;;;;;5.72;3.60;;;24.60;48.00;;;;;;5006047;28;20056;-63
2023/05/27 11:38:52;;;;;;;5.35;3.80;;;24.60;47.90;;;;;;5007314;28;20042;-64
2023/05/27 11:41:19;;;;;;;5.70;3.70;;;24.70;47.20;;;;;;5007690;28;20037;-64
2023/05/27 11:44:11;;;;;;;4.45;3.90;;;24.70;47.70;;;;;;5007075;28;20386;-64
2023/05/27 11:46:41;;;;;;;6.30;3.90;;;24.70;47.90;;;;;;5003567;28;20084;-64
2023/05/27 11:49:08;;;;;;;5.63;3.50;;;24.80;47.40;;;;;;5006567;28;20104;-64
2023/05/27 11:51:36;;;;;;;6.60;3.50;;;24.80;48.00;;;;;;5007015;28;20056;-62
2023/05/27 11:54:02;;;;;;;6.60;3.65;;;24.90;48.10;;;;;;5009032;28;20494;-64
2023/05/27 11:56:28;;;;;;;10.57;4.07;;;24.90;47.60;;;;;;5007393;28;20037;-64
2023/05/27 11:58:55;;;;;;;7.18;4.30;;;25.00;47.50;;;;;;5008960;28;20123;-64
2023/05/27 12:01:21;;;;;;;7.15;4.15;;;25.00;47.40;;;;;;5008802;28;20111;-63
2023/05/27 12:03:46;;;;;;;6.47;3.35;;;25.10;46.90;;;;;;5008165;28;20038;-64
2023/05/27 12:06:12;;;;;;;8.85;4.05;;;25.10;47.00;;;;;;5007577;28;20049;-64
2023/05/27 12:08:38;;;;;;;6.35;3.80;;;25.10;47.10;;;;;;5007465;28;20381;-64
2023/05/27 12:11:04;;;;;;;5.97;4.10;;;25.10;47.10;;;;;;5007077;28;20710;-63
2023/05/27 12:13:31;;;;;;;7.25;3.90;;;25.10;46.40;;;;;;5007390;28;20030;-64
2023/05/27 12:15:57;;;;;;;9.65;4.20;;;25.10;46.90;;;;;;5007436;28;20026;-63
2023/05/27 12:18:23;;;;;;;10.70;4.07;;;25.10;46.40;;;;;;5007819;28;20045;-64
2023/05/27 12:20:50;;;;;;;9.27;4.00;;;25.10;46.20;;;;;;5006324;28;20671;-64
2023/05/27 12:23:15;;;;;;;6.22;3.75;;;25.10;46.40;;;;;;5007561;28;20029;-64
2023/05/27 12:25:41;;;;;;;8.02;4.40;;;25.10;46.90;;;;;;5009086;28;20032;-64
2023/05/27 12:28:08;;;;;;;8.45;3.65;;;25.10;46.00;;;;;;5008060;28;20030;-62
2023/05/27 12:30:35;;;;;;;8.82;4.20;;;25.10;46.70;;;;;;5006171;28;20451;-64
2023/05/27 12:33:01;;;;;;;5.75;4.00;;;25.10;46.40;;;;;;5008098;28;20030;-64
2023/05/27 12:35:27;;;;;;;8.50;3.60;;;25.00;46.40;;;;;;5005249;28;20030;-64
2023/05/27 12:37:52;;;;;;;5.82;4.15;;;25.10;46.40;;;;;;5007632;28;20037;-64
2023/05/27 12:40:18;;;;;;;4.95;3.58;;;25.10;46.30;;;;;;5006653;28;20044;-64
2023/05/27 12:42:44;;;;;;;7.80;4.13;;;25.00;46.70;;;;;;5007578;28;20472;-63
2023/05/27 12:45:10;;;;;;;7.78;3.80;;;25.10;46.10;;;;;;4996654;28;20520;-64